Time;durP1;ratioP1;P1;durP2;ratioP2;P2;SDS_P1;SDS_P2;PMS_P1;PMS_P2;Temp;Humidity;BMP_temperature;BMP_pressure;BME280_temperature;BME280_humidity;BME280_pressure;Samples;Min_cycle;Max_cycle;Signal;HPM_P1;HPM_P2
2024/01/01 00:00:10;;;;;;;37.60;33.67;;;21.10;54.90;;;;;;4941907;29;20471;-83
2024/01/01 00:02:40;;;;;;;38.43;34.67;;;21.10;54.80;;;;;;4936235;29;20462;-84
2024/01/01 00:05:10;;;;;;;35.90;32.17;;;21.10;54.80;;;;;;4943138;29;20443;-84
2024/01/01 00:07:39;;;;;;;36.70;32.90;;;21.10;54.90;;;;;;4928482;29;20511;-84
2024/01/01 00:10:08;;;;;;;34.73;31.00;;;21.10;54.60;;;;;;4933534;29;20498;-83
2024/01/01 00:12:37;;;;;;;35.27;31.30;;;21.10;55.00;;;;;;4933794;29;20480;-82
2024/01/01 00:15:06;;;;;;;35.63;31.87;;;21.10;54.60;;;;;;4935421;29;20473;-84
2024/01/01 00:17:34;;;;;;;32.70;29.53;;;21.10;54.80;;;;;;4930847;29;20473;-83
2024/01/01 00:20:05;;;;;;;34.33;30.90;;;21.10;54.80;;;;;;4940965;29;20465;-82
2024/01/01 00:22:33;;;;;;;33.27;29.83;;;21.10;54.60;;;;;;4933646;29;20474;-83
2024/01/01 00:25:02;;;;;;;32.83;29.50;;;21.00;54.60;;;;;;4927750;29;20519;-83
2024/01/01 00:27:34;;;;;;;31.60;28.47;;;21.00;54.90;;;;;;4941169;29;20853;-84
2024/01/01 00:30:02;;;;;;;30.47;27.60;;;21.00;55.00;;;;;;4927644;29;20451;-82
2024/01/01 00:32:31;;;;;;;29.93;26.97;;;21.00;55.10;;;;;;4942672;29;20481;-83
2024/01/01 00:35:02;;;;;;;28.37;25.67;;;21.00;54.90;;;;;;4914806;29;20452;-83
2024/01/01 00:37:31;;;;;;;28.43;25.93;;;21.00;55.20;;;;;;4920758;29;20470;-83
2024/01/01 00:40:00;;;;;;;27.80;25.20;;;21.00;55.20;;;;;;4916806;29;20477;-82
2024/01/01 00:42:32;;;;;;;26.43;24.03;;;21.00;55.20;;;;;;4938404;29;20798;-89
2024/01/01 00:45:01;;;;;;;26.87;24.33;;;21.00;54.90;;;;;;4935449;29;20461;-83
2024/01/01 00:47:29;;;;;;;26.43;23.83;;;21.00;55.00;;;;;;4944329;29;20461;-84
2024/01/01 00:49:59;;;;;;;25.47;22.97;;;21.00;55.10;;;;;;4919463;29;20479;-82
2024/01/01 00:52:27;;;;;;;26.50;23.87;;;21.00;55.00;;;;;;4933052;29;20489;-83
2024/01/01 00:54:57;;;;;;;23.57;21.30;;;21.00;54.90;;;;;;4935843;29;20453;-83
2024/01/01 00:57:25;;;;;;;24.17;21.93;;;20.90;55.00;;;;;;4934372;28;20831;-83
2024/01/01 00:59:53;;;;;;;23.20;21.20;;;20.90;55.20;;;;;;4916706;29;20459;-83
2024/01/01 01:02:21;;;;;;;23.27;20.87;;;20.90;55.30;;;;;;4926023;29;21021;-83
2024/01/01 01:04:51;;;;;;;21.70;19.73;;;20.90;55.30;;;;;;4917765;29;20895;-84
2024/01/01 01:07:33;;;;;;;21.87;19.77;;;20.90;55.10;;;;;;4931986;29;20491;-82
2024/01/01 01:10:04;;;;;;;21.47;19.27;;;20.90;55.10;;;;;;4931778;29;20457;-82
2024/01/01 01:12:32;;;;;;;20.67;18.70;;;20.90;55.30;;;;;;4917545;29;20525;-83
2024/01/01 01:15:00;;;;;;;20.80;18.90;;;20.90;55.30;;;;;;4933199;29;20484;-83
2024/01/01 01:17:29;;;;;;;20.07;18.20;;;20.90;55.10;;;;;;4946225;29;20445;-83
2024/01/01 01:19:57;;;;;;;19.53;17.73;;;20.90;55.40;;;;;;4935725;29;20902;-84
2024/01/01 01:22:25;;;;;;;18.80;17.10;;;20.90;55.30;;;;;;4917116;29;20465;-84
2024/01/01 01:24:53;;;;;;;19.27;17.57;;;20.90;55.40;;;;;;4934349;29;20497;-83
2024/01/01 01:27:23;;;;;;;18.63;17.03;;;20.80;55.20;;;;;;4934539;29;20450;-83
2024/01/01 01:29:51;;;;;;;17.20;15.70;;;20.80;55.50;;;;;;4921546;29;20458;-83
2024/01/01 01:32:20;;;;;;;16.20;14.63;;;20.80;55.40;;;;;;4942652;29;20505;-83
2024/01/01 01:34:48;;;;;;;16.43;14.97;;;20.80;55.10;;;;;;4935816;29;20954;-84
2024/01/01 01:37:17;;;;;;;17.80;16.20;;;20.80;55.10;;;;;;4938058;29;20462;-83
2024/01/01 01:39:46;;;;;;;16.70;15.30;;;20.80;55.60;;;;;;4931176;29;20465;-83
2024/01/01 01:42:14;;;;;;;16.27;14.47;;;20.80;55.60;;;;;;4917474;29;20460;-82
2024/01/01 01:44:44;;;;;;;14.53;13.13;;;20.80;55.50;;;;;;4934423;29;20457;-83
2024/01/01 01:47:12;;;;;;;16.00;14.50;;;20.70;55.20;;;;;;4933001;29;20495;-89
2024/01/01 01:49:41;;;;;;;16.33;14.73;;;20.70;55.60;;;;;;4933280;29;20520;-83
2024/01/01 01:52:11;;;;;;;13.23;12.13;;;20.70;55.70;;;;;;4938392;29;20480;-84
2024/01/01 01:54:39;;;;;;;12.93;11.83;;;20.70;55.70;;;;;;4915743;29;20416;-82
2024/01/01 01:57:08;;;;;;;14.17;12.87;;;20.70;55.50;;;;;;4923853;29;20494;-83
2024/01/01 01:59:36;;;;;;;13.43;12.30;;;20.70;55.50;;;;;;4910832;29;20556;-84
2024/01/01 02:02:06;;;;;;;13.30;12.10;;;20.70;55.60;;;;;;4900781;29;20458;-83
2024/01/01 02:04:35;;;;;;;12.53;11.53;;;20.70;55.70;;;;;;4928363;29;20468;-84
2024/01/01 02:07:03;;;;;;;13.53;12.23;;;20.70;55.60;;;;;;4938317;29;20540;-83
2024/01/01 02:09:32;;;;;;;12.87;11.83;;;20.70;55.40;;;;;;4935627;29;20460;-83
2024/01/01 02:12:01;;;;;;;12.20;11.10;;;20.70;55.30;;;;;;4934239;29;20962;-84
2024/01/01 02:14:30;;;;;;;11.40;10.50;;;20.70;55.30;;;;;;4950697;29;20561;-83
2024/01/01 02:16:58;;;;;;;11.20;10.30;;;20.60;55.40;;;;;;4947346;29;20466;-83
2024/01/01 02:19:28;;;;;;;11.47;10.47;;;20.60;55.30;;;;;;4937157;29;20957;-83
2024/01/01 02:21:57;;;;;;;10.80;10.00;;;20.60;55.50;;;;;;4936946;29;20535;-83
2024/01/01 02:24:27;;;;;;;11.50;10.43;;;20.60;55.30;;;;;;4937442;29;21063;-84
2024/01/01 02:26:55;;;;;;;11.80;10.73;;;20.50;55.40;;;;;;4937175;29;20536;-84
2024/01/01 02:29:23;;;;;;;11.17;10.27;;;20.60;55.80;;;;;;4951260;29;20510;-83
2024/01/01 02:31:52;;;;;;;10.93;9.93;;;20.60;55.90;;;;;;4955594;29;20448;-92
2024/01/01 02:34:22;;;;;;;9.87;8.87;;;20.60;56.00;;;;;;4930801;29;20481;-82
2024/01/01 02:36:50;;;;;;;9.83;9.07;;;20.60;56.00;;;;;;4918843;29;20446;-83
2024/01/01 02:39:18;;;;;;;10.07;9.27;;;20.60;56.00;;;;;;4923244;29;20517;-82
2024/01/01 02:41:48;;;;;;;9.43;8.17;;;20.60;56.00;;;;;;4917626;29;20474;-84
2024/01/01 02:44:18;;;;;;;8.73;8.03;;;20.60;55.90;;;;;;4929234;29;20476;-82
2024/01/01 02:46:47;;;;;;;9.73;8.90;;;20.60;55.40;;;;;;4946072;29;20465;-82
2024/01/01 02:49:16;;;;;;;10.20;9.20;;;20.60;55.40;;;;;;4920195;29;20501;-82
2024/01/01 02:51:44;;;;;;;8.60;7.80;;;20.60;55.40;;;;;;4917684;29;20512;-82
2024/01/01 02:54:12;;;;;;;8.23;7.53;;;20.60;55.60;;;;;;4936142;29;20483;-84
2024/01/01 02:56:41;;;;;;;8.10;7.50;;;20.50;55.70;;;;;;4935272;29;20826;-84
2024/01/01 02:59:11;;;;;;;9.60;8.57;;;20.50;55.60;;;;;;4931480;29;20444;-83
2024/01/01 03:01:40;;;;;;;9.87;8.80;;;20.50;55.50;;;;;;4938988;29;20467;-83
2024/01/01 03:04:08;;;;;;;8.00;7.30;;;20.50;55.50;;;;;;4956372;29;20456;-83
2024/01/01 03:06:36;;;;;;;11.30;7.07;;;20.50;55.40;;;;;;4935864;28;20488;-86
2024/01/01 03:09:04;;;;;;;7.77;7.17;;;20.50;55.60;;;;;;4936292;29;20461;-86
2024/01/01 03:11:33;;;;;;;7.50;6.90;;;20.40;55.60;;;;;;4933202;29;20468;-83
2024/01/01 03:14:01;;;;;;;7.00;6.40;;;20.40;55.70;;;;;;4936135;29;20477;-83
2024/01/01 03:16:31;;;;;;;8.00;7.40;;;20.40;55.60;;;;;;4936595;29;20493;-90
2024/01/01 03:18:59;;;;;;;7.77;6.97;;;20.40;55.70;;;;;;4919402;29;20544;-83
2024/01/01 03:21:32;;;;;;;7.97;7.27;;;20.40;55.90;;;;;;4918685;29;20458;-83
2024/01/01 03:24:00;;;;;;;6.67;6.13;;;20.40;56.10;;;;;;4919391;29;20859;-84
2024/01/01 03:26:28;;;;;;;5.93;5.50;;;20.40;56.10;;;;;;4934905;29;20476;-83
2024/01/01 03:28:57;;;;;;;6.87;6.27;;;20.40;56.10;;;;;;4935217;29;20471;-82
2024/01/01 03:31:25;;;;;;;6.53;5.93;;;20.40;56.10;;;;;;4934883;29;20587;-83
2024/01/01 03:33:55;;;;;;;6.33;5.73;;;20.40;56.10;;;;;;4918803;29;20500;-83
2024/01/01 03:36:23;;;;;;;5.80;5.33;;;20.50;56.00;;;;;;4935218;29;21000;-83
2024/01/01 03:38:52;;;;;;;6.30;5.80;;;20.40;55.90;;;;;;4925442;29;20461;-83
2024/01/01 03:41:24;;;;;;;5.50;5.10;;;20.40;55.90;;;;;;4955005;29;20460;-87
2024/01/01 03:43:52;;;;;;;5.83;5.30;;;20.40;55.60;;;;;;4939830;29;20467;-82
2024/01/01 03:46:20;;;;;;;6.20;5.60;;;20.40;55.60;;;;;;4946211;29;20464;-85
2024/01/01 03:48:49;;;;;;;5.63;5.13;;;20.40;56.00;;;;;;4921095;29;20465;-83
2024/01/01 03:51:18;;;;;;;6.30;5.73;;;20.40;56.00;;;;;;4936384;29;20948;-83
2024/01/01 03:53:47;;;;;;;5.30;4.90;;;20.40;56.10;;;;;;4936392;29;20508;-83
2024/01/01 03:56:15;;;;;;;5.87;5.30;;;20.40;55.90;;;;;;4918946;29;20492;-84
2024/01/01 03:58:44;;;;;;;5.60;5.20;;;20.40;56.00;;;;;;4932109;29;20461;-83
2024/01/01 04:01:13;;;;;;;5.30;4.80;;;20.40;56.10;;;;;;4935029;29;20469;-83
2024/01/01 04:03:42;;;;;;;5.10;4.70;;;20.40;56.00;;;;;;4945758;29;20531;-83
2024/01/01 04:06:10;;;;;;;5.63;5.03;;;20.40;56.10;;;;;;4917506;29;20564;-84
2024/01/01 04:08:40;;;;;;;5.10;4.70;;;20.40;55.90;;;;;;4914415;29;20547;-83
2024/01/01 04:11:08;;;;;;;4.77;4.37;;;20.40;55.90;;;;;;4936040;29;20842;-84
2024/01/01 04:13:36;;;;;;;5.37;4.87;;;20.40;56.10;;;;;;4934755;29;20480;-83
2024/01/01 04:16:07;;;;;;;5.80;5.20;;;20.30;56.00;;;;;;4935368;29;20799;-84
2024/01/01 04:18:35;;;;;;;4.53;4.17;;;20.30;55.90;;;;;;4936884;29;20914;-83
2024/01/01 04:21:04;;;;;;;4.27;3.97;;;20.30;55.80;;;;;;4954991;29;20432;-83
2024/01/01 04:23:33;;;;;;;4.27;3.97;;;20.30;55.80;;;;;;4954220;28;20491;-82
2024/01/01 04:26:02;;;;;;;5.13;4.30;;;20.30;55.90;;;;;;4936176;29;20517;-83
2024/01/01 04:28:30;;;;;;;5.00;4.63;;;20.30;56.00;;;;;;4934786;29;20472;-84
2024/01/01 04:30:59;;;;;;;3.67;3.40;;;20.30;55.90;;;;;;4947248;29;20524;-84
2024/01/01 04:33:27;;;;;;;4.20;3.87;;;20.30;55.80;;;;;;4934081;29;20797;-83
2024/01/01 04:35:55;;;;;;;4.80;4.40;;;20.30;56.00;;;;;;4935797;29;20438;-83
2024/01/01 04:38:24;;;;;;;4.93;4.43;;;20.30;56.00;;;;;;4935206;29;20456;-83
2024/01/01 04:40:52;;;;;;;4.17;3.77;;;20.30;56.00;;;;;;4937184;29;20522;-83
2024/01/01 04:43:22;;;;;;;5.63;4.10;;;20.30;56.00;;;;;;4918028;29;20469;-86
2024/01/01 04:45:50;;;;;;;3.83;3.50;;;20.30;56.10;;;;;;4914748;29;20503;-82
2024/01/01 04:48:18;;;;;;;3.70;3.40;;;20.30;55.90;;;;;;4924205;29;20464;-82
2024/01/01 04:50:46;;;;;;;3.90;3.60;;;20.20;55.90;;;;;;4935908;29;20484;-83
2024/01/01 04:53:14;;;;;;;3.80;3.40;;;20.30;55.80;;;;;;4917788;29;20483;-83
2024/01/01 04:55:43;;;;;;;3.67;3.37;;;20.20;55.80;;;;;;4935373;29;20473;-83
2024/01/01 04:58:11;;;;;;;4.33;3.90;;;20.20;55.80;;;;;;4934622;29;20441;-82
2024/01/01 05:00:41;;;;;;;3.50;3.20;;;20.20;55.90;;;;;;4943338;29;20527;-83
2024/01/01 05:03:09;;;;;;;3.70;3.40;;;20.20;55.80;;;;;;4927605;29;20804;-83
2024/01/01 05:05:37;;;;;;;4.57;3.90;;;20.20;55.80;;;;;;4935122;29;20445;-83
2024/01/01 05:08:06;;;;;;;5.43;3.10;;;20.20;55.80;;;;;;4942269;29;20487;-83
2024/01/01 05:10:36;;;;;;;3.77;2.93;;;20.20;55.90;;;;;;4954008;29;20515;-82
2024/01/01 05:13:04;;;;;;;3.43;3.17;;;20.30;55.80;;;;;;4953912;29;20453;-83
2024/01/01 05:15:33;;;;;;;3.60;3.30;;;20.30;55.70;;;;;;4951739;29;20965;-83
2024/01/01 05:18:02;;;;;;;2.90;2.70;;;20.30;55.60;;;;;;4934323;29;20472;-83
2024/01/01 05:20:31;;;;;;;3.40;3.10;;;20.30;55.60;;;;;;4927454;29;20481;-87
2024/01/01 05:22:59;;;;;;;3.47;2.80;;;20.40;55.60;;;;;;4934362;29;20504;-85
2024/01/01 05:25:27;;;;;;;3.20;2.97;;;20.40;55.40;;;;;;4935214;29;20480;-84
2024/01/01 05:27:55;;;;;;;2.80;2.60;;;20.40;55.30;;;;;;4934235;29;20513;-82
2024/01/01 05:30:27;;;;;;;3.10;2.90;;;20.50;55.20;;;;;;4931761;29;20828;-82
2024/01/01 05:32:55;;;;;;;2.93;2.73;;;20.50;55.10;;;;;;4933293;29;20485;-83
2024/01/01 05:35:25;;;;;;;3.17;2.87;;;20.60;55.00;;;;;;4938888;29;20473;-84
2024/01/01 05:37:54;;;;;;;2.43;2.27;;;20.60;55.10;;;;;;4952787;29;20530;-83
2024/01/01 05:40:23;;;;;;;3.00;2.70;;;20.60;54.80;;;;;;4932754;29;20472;-83
2024/01/01 05:42:51;;;;;;;2.33;2.13;;;20.60;54.70;;;;;;4924560;28;20449;-83
2024/01/01 05:45:20;;;;;;;2.30;2.20;;;20.70;54.90;;;;;;4957357;29;20436;-83
2024/01/01 05:47:48;;;;;;;2.50;2.30;;;20.70;54.70;;;;;;4957189;29;20947;-82
2024/01/01 05:50:18;;;;;;;3.27;2.97;;;20.80;54.60;;;;;;4944208;29;20508;-83
2024/01/01 05:52:47;;;;;;;2.67;2.47;;;20.80;54.50;;;;;;4938040;29;20463;-83
2024/01/01 05:55:16;;;;;;;2.10;2.00;;;20.80;54.40;;;;;;4946423;29;20531;-83
2024/01/01 05:57:44;;;;;;;2.43;2.23;;;20.90;54.40;;;;;;4919945;29;20460;-83
2024/01/01 06:00:13;;;;;;;2.30;2.10;;;20.90;54.20;;;;;;4930409;29;20471;-83
2024/01/01 06:02:42;;;;;;;2.40;2.17;;;20.90;54.00;;;;;;4946923;29;20462;-84
2024/01/01 06:05:10;;;;;;;2.80;2.00;;;21.00;54.10;;;;;;4955661;29;20524;-83
2024/01/01 06:07:38;;;;;;;1.93;1.83;;;21.00;54.10;;;;;;4940316;29;20502;-83
2024/01/01 06:10:09;;;;;;;1.80;1.70;;;21.00;54.00;;;;;;4946905;29;20529;-83
2024/01/01 06:12:37;;;;;;;2.60;2.40;;;21.00;54.00;;;;;;4937206;29;20454;-83
2024/01/01 06:15:07;;;;;;;3.20;2.30;;;21.00;53.90;;;;;;4937809;29;20473;-84
2024/01/01 06:17:35;;;;;;;2.37;1.90;;;21.00;54.10;;;;;;4935576;29;20456;-84
2024/01/01 06:20:04;;;;;;;2.10;2.00;;;21.00;53.90;;;;;;4940041;29;21120;-83
2024/01/01 06:22:32;;;;;;;2.40;1.93;;;21.00;53.90;;;;;;4938195;29;20465;-83
2024/01/01 06:25:01;;;;;;;1.77;1.67;;;21.00;54.10;;;;;;4937418;29;20485;-83
2024/01/01 06:27:30;;;;;;;2.17;1.97;;;21.00;53.90;;;;;;4937578;29;20453;-90
2024/01/01 06:29:59;;;;;;;2.30;2.00;;;21.00;54.30;;;;;;4937551;29;20783;-83
2024/01/01 06:32:27;;;;;;;1.70;1.60;;;21.00;54.10;;;;;;4936208;29;20470;-84
2024/01/01 06:34:55;;;;;;;1.90;1.80;;;21.00;54.10;;;;;;4940016;29;20466;-83
2024/01/01 06:37:23;;;;;;;2.10;1.93;;;21.00;54.00;;;;;;4946426;29;20564;-82
2024/01/01 06:39:52;;;;;;;1.97;1.80;;;20.90;54.00;;;;;;4938010;29;20463;-83
2024/01/01 06:42:20;;;;;;;2.17;1.97;;;20.90;54.20;;;;;;4920318;29;20454;-88
2024/01/01 06:44:49;;;;;;;1.40;1.30;;;21.00;54.10;;;;;;4937782;29;21154;-83
2024/01/01 06:47:18;;;;;;;2.27;2.07;;;21.00;54.00;;;;;;4942865;29;20464;-84
2024/01/01 06:49:46;;;;;;;2.50;1.90;;;21.00;54.10;;;;;;4956557;29;20468;-84
2024/01/01 06:52:15;;;;;;;1.60;1.50;;;21.00;54.10;;;;;;4956415;29;20467;-83
2024/01/01 06:54:43;;;;;;;2.13;1.90;;;21.00;54.10;;;;;;4951799;28;20441;-83
2024/01/01 06:57:11;;;;;;;1.60;1.50;;;20.90;54.20;;;;;;4925075;29;20458;-83
2024/01/01 06:59:39;;;;;;;2.30;2.10;;;21.00;54.20;;;;;;4937158;29;20493;-85
2024/01/01 07:02:09;;;;;;;1.63;1.53;;;21.00;54.30;;;;;;4937322;29;20488;-83
2024/01/01 07:04:37;;;;;;;1.50;1.40;;;21.00;54.10;;;;;;4945930;29;20447;-83
2024/01/01 07:07:05;;;;;;;1.50;1.40;;;21.00;54.40;;;;;;4955735;29;20456;-84
2024/01/01 07:09:34;;;;;;;2.30;2.10;;;21.00;54.10;;;;;;4948243;29;20477;-83
2024/01/01 07:12:19;;;;;;;1.60;1.50;;;21.00;54.10;;;;;;4936352;29;20437;-83
2024/01/01 07:14:47;;;;;;;1.67;1.57;;;21.00;53.90;;;;;;4922385;29;20837;-83
2024/01/01 07:17:19;;;;;;;1.70;1.53;;;21.00;54.10;;;;;;4936419;29;20457;-83
2024/01/01 07:19:48;;;;;;;1.50;1.40;;;21.00;54.10;;;;;;4944477;29;20447;-83
2024/01/01 07:22:16;;;;;;;2.27;2.07;;;21.00;54.10;;;;;;4955701;29;20432;-83
2024/01/01 07:24:44;;;;;;;1.40;1.30;;;21.00;54.00;;;;;;4952143;28;20511;-83
2024/01/01 07:27:13;;;;;;;1.43;1.40;;;21.00;53.80;;;;;;4952469;29;20456;-84
2024/01/01 07:29:41;;;;;;;1.27;1.17;;;21.10;53.70;;;;;;4945572;29;20464;-83
2024/01/01 07:32:10;;;;;;;1.17;1.07;;;21.10;53.80;;;;;;4948373;29;20538;-83
2024/01/01 07:34:39;;;;;;;1.43;1.33;;;21.10;53.80;;;;;;4939344;29;20449;-83
2024/01/01 07:37:07;;;;;;;1.90;1.47;;;21.10;53.50;;;;;;4935914;29;20476;-83
2024/01/01 07:39:36;;;;;;;1.33;1.10;;;21.10;53.60;;;;;;4936357;29;20445;-83
2024/01/01 07:42:04;;;;;;;1.00;1.00;;;21.10;53.60;;;;;;4915946;29;20530;-83
2024/01/01 07:44:33;;;;;;;1.60;1.50;;;21.10;53.40;;;;;;4900506;29;20518;-83
2024/01/01 07:47:02;;;;;;;1.13;1.07;;;21.10;53.40;;;;;;4927298;29;20826;-83
2024/01/01 07:49:30;;;;;;;1.10;1.00;;;21.10;53.50;;;;;;4933073;29;20455;-86
2024/01/01 07:52:01;;;;;;;1.33;1.23;;;21.00;53.50;;;;;;4905024;29;20461;-82
2024/01/01 07:54:29;;;;;;;0.93;0.90;;;21.00;53.50;;;;;;4935838;29;21021;-84
2024/01/01 07:56:58;;;;;;;1.90;1.37;;;21.00;53.50;;;;;;4935491;29;20484;-83
2024/01/01 07:59:26;;;;;;;1.70;1.30;;;21.00;53.60;;;;;;4937538;29;20465;-83
2024/01/01 08:01:54;;;;;;;1.30;1.20;;;21.00;53.60;;;;;;4930000;29;20506;-83
2024/01/01 08:04:22;;;;;;;1.40;1.23;;;21.00;53.60;;;;;;4921764;29;20528;-82
2024/01/01 08:06:51;;;;;;;1.20;1.10;;;21.00;53.60;;;;;;4935539;29;20470;-87
2024/01/01 08:09:20;;;;;;;2.03;1.30;;;21.00;53.70;;;;;;4932478;29;20475;-82
2024/01/01 08:11:49;;;;;;;1.43;1.20;;;21.00;53.80;;;;;;4931708;28;22246;-82
2024/01/01 08:14:17;;;;;;;1.87;1.40;;;21.00;53.80;;;;;;4924510;29;20443;-83
2024/01/01 08:16:45;;;;;;;1.20;1.10;;;21.00;53.70;;;;;;4936136;29;20476;-85
2024/01/01 08:19:15;;;;;;;1.33;1.23;;;21.00;53.70;;;;;;4935076;29;20450;-83
2024/01/01 08:21:43;;;;;;;1.30;1.20;;;21.00;53.90;;;;;;4932470;29;21020;-83
2024/01/01 08:24:11;;;;;;;1.17;1.07;;;21.00;53.80;;;;;;4933255;29;20558;-83
2024/01/01 08:26:41;;;;;;;1.53;0.80;;;21.00;54.00;;;;;;4936895;29;20497;-83
2024/01/01 08:29:09;;;;;;;1.33;1.23;;;21.00;53.90;;;;;;4930604;29;20470;-83
2024/01/01 08:31:38;;;;;;;1.30;1.20;;;21.00;53.80;;;;;;4930525;29;20553;-85
2024/01/01 08:34:06;;;;;;;1.70;1.10;;;21.00;53.90;;;;;;4935405;29;20477;-87
2024/01/01 08:36:34;;;;;;;2.10;1.17;;;21.00;53.80;;;;;;4930487;29;20490;-85
2024/01/01 08:39:03;;;;;;;1.80;1.30;;;21.10;53.80;;;;;;4931180;29;20453;-83
2024/01/01 08:41:32;;;;;;;2.40;1.17;;;21.10;53.90;;;;;;4935138;29;20954;-83
2024/01/01 08:44:03;;;;;;;1.00;1.00;;;21.10;53.90;;;;;;4932776;29;20475;-87
2024/01/01 08:46:31;;;;;;;1.90;1.13;;;21.10;53.80;;;;;;4930381;29;20961;-84
2024/01/01 08:49:00;;;;;;;1.53;1.40;;;21.20;53.70;;;;;;4930496;29;20523;-84
2024/01/01 08:51:28;;;;;;;1.83;0.77;;;21.20;53.70;;;;;;4925327;29;20525;-83
2024/01/01 08:53:56;;;;;;;2.30;1.00;;;21.20;53.70;;;;;;4932010;29;20461;-82
2024/01/01 08:56:24;;;;;;;1.63;1.17;;;21.20;53.70;;;;;;4929884;29;20517;-85
2024/01/01 08:58:56;;;;;;;1.50;1.40;;;21.20;53.60;;;;;;4928514;29;20474;-82
2024/01/01 09:01:26;;;;;;;1.00;0.87;;;21.30;53.60;;;;;;4939859;29;20473;-83
2024/01/01 09:03:56;;;;;;;1.43;1.30;;;21.30;53.60;;;;;;4930099;29;20948;-83
2024/01/01 09:06:24;;;;;;;0.90;0.90;;;21.30;53.50;;;;;;4935653;29;20491;-87
2024/01/01 09:08:53;;;;;;;2.07;1.17;;;21.30;53.50;;;;;;4939803;29;20534;-83
2024/01/01 09:11:21;;;;;;;1.50;1.40;;;21.30;53.50;;;;;;4912023;29;20488;-84
2024/01/01 09:13:49;;;;;;;2.03;1.40;;;21.30;53.40;;;;;;4926326;29;20487;-84
2024/01/01 09:16:17;;;;;;;1.60;1.20;;;21.30;53.50;;;;;;4934515;29;20507;-90
2024/01/01 09:18:47;;;;;;;2.60;1.33;;;21.30;53.40;;;;;;4935266;29;20456;-83
2024/01/01 09:21:16;;;;;;;1.00;0.93;;;21.20;53.60;;;;;;4938623;29;20466;-83
2024/01/01 09:23:44;;;;;;;0.83;0.80;;;21.20;53.60;;;;;;4931700;29;20502;-82
2024/01/01 09:26:13;;;;;;;2.40;1.57;;;21.20;53.60;;;;;;4927780;29;20467;-83
2024/01/01 09:28:42;;;;;;;2.50;1.77;;;21.20;53.70;;;;;;4932982;29;20513;-83
2024/01/01 09:31:10;;;;;;;2.90;2.07;;;21.20;53.70;;;;;;4937551;29;20460;-83
2024/01/01 09:33:39;;;;;;;3.30;2.50;;;21.20;53.80;;;;;;4931683;29;20558;-83
2024/01/01 09:36:12;;;;;;;3.53;2.57;;;21.20;53.70;;;;;;4932541;29;20454;-83
2024/01/01 09:38:42;;;;;;;2.70;2.50;;;21.20;53.70;;;;;;4922467;29;20466;-85
2024/01/01 09:41:12;;;;;;;3.87;2.40;;;21.20;53.80;;;;;;4926913;29;20476;-88
2024/01/01 09:43:42;;;;;;;3.27;2.33;;;21.20;53.80;;;;;;4928723;29;20488;-86
2024/01/01 09:46:13;;;;;;;6.43;3.07;;;21.20;53.70;;;;;;4936254;29;20540;-87
2024/01/01 09:48:41;;;;;;;3.17;2.70;;;21.20;53.60;;;;;;4934186;29;21313;-84
2024/01/01 09:51:11;;;;;;;2.87;2.63;;;21.30;53.70;;;;;;4925785;29;20515;-83
2024/01/01 09:53:39;;;;;;;2.70;2.50;;;21.30;53.60;;;;;;4932276;29;20503;-84
2024/01/01 09:56:07;;;;;;;2.70;2.50;;;21.30;53.50;;;;;;4928184;29;20469;-87
2024/01/01 09:58:42;;;;;;;5.03;3.10;;;21.30;53.50;;;;;;4933188;29;20516;-82
2024/01/01 10:01:12;;;;;;;2.90;2.70;;;21.30;53.60;;;;;;4916956;29;20469;-85
2024/01/01 10:03:41;;;;;;;3.33;2.90;;;21.40;53.50;;;;;;4931164;29;20988;-83
2024/01/01 10:06:12;;;;;;;3.40;3.10;;;21.40;53.40;;;;;;4934445;29;21025;-83
2024/01/01 10:08:40;;;;;;;3.73;3.00;;;21.40;53.50;;;;;;4912535;29;21156;-83
2024/01/01 10:11:17;;;;;;;3.13;2.80;;;21.40;53.40;;;;;;4929067;29;20471;-83
2024/01/01 10:13:46;;;;;;;3.37;2.20;;;21.50;53.50;;;;;;4928109;29;20991;-95
2024/01/01 10:16:25;;;;;;;2.43;2.20;;;21.50;53.40;;;;;;4927383;29;20463;-83
2024/01/01 10:18:55;;;;;;;3.33;2.83;;;21.60;53.40;;;;;;4933625;29;20516;-83
2024/01/01 10:21:29;;;;;;;3.67;2.67;;;21.60;53.40;;;;;;4931841;29;20968;-83
2024/01/01 10:23:58;;;;;;;3.50;3.20;;;21.70;53.30;;;;;;4928415;29;20998;-83
2024/01/01 10:26:33;;;;;;;2.47;2.27;;;21.70;53.10;;;;;;4929554;29;20466;-83
2024/01/01 10:29:01;;;;;;;2.27;2.17;;;21.80;53.10;;;;;;4909137;29;20829;-83
2024/01/01 10:31:30;;;;;;;2.20;2.00;;;21.80;53.00;;;;;;4926467;29;20590;-82
2024/01/01 10:34:02;;;;;;;2.67;2.47;;;21.90;52.90;;;;;;4931572;29;20535;-85
2024/01/01 10:36:32;;;;;;;2.40;2.20;;;22.00;52.90;;;;;;4918565;29;20462;-83
2024/01/01 10:39:01;;;;;;;3.80;2.40;;;22.00;52.90;;;;;;4929756;29;21074;-91
2024/01/01 10:41:29;;;;;;;2.40;2.20;;;22.10;52.90;;;;;;4934910;29;20475;-83
2024/01/01 10:43:59;;;;;;;2.30;2.10;;;22.10;52.80;;;;;;4935764;29;20498;-83
2024/01/01 10:46:29;;;;;;;3.27;2.80;;;22.20;52.60;;;;;;4936972;29;20468;-82
2024/01/01 10:48:59;;;;;;;2.13;2.00;;;22.20;52.40;;;;;;4937590;29;20451;-83
2024/01/01 10:51:42;;;;;;;3.83;2.40;;;22.20;52.50;;;;;;4934403;29;20445;-83
2024/01/01 10:54:54;;;;;;;2.83;2.50;;;22.20;52.40;;;;;;4933688;29;21130;-82
2024/01/01 10:57:46;;;;;;;2.57;2.37;;;22.20;52.50;;;;;;4933712;29;20483;-90
2024/01/01 11:00:23;;;;;;;1.80;1.70;;;22.20;52.30;;;;;;4945591;29;20463;-83
2024/01/01 11:02:51;;;;;;;2.23;2.03;;;22.20;52.50;;;;;;4928338;29;21046;-83
2024/01/01 11:05:30;;;;;;;2.43;1.83;;;22.30;52.50;;;;;;4928533;29;20463;-82
2024/01/01 11:08:01;;;;;;;3.97;1.90;;;22.40;52.30;;;;;;4931340;29;20471;-83
2024/01/01 11:10:37;;;;;;;1.43;1.33;;;22.40;52.30;;;;;;4928949;29;20488;-82
2024/01/01 11:13:12;;;;;;;2.30;2.10;;;22.50;52.20;;;;;;4935747;29;20476;-84
2024/01/01 11:15:42;;;;;;;2.20;1.93;;;22.60;52.10;;;;;;4945092;29;20465;-81
2024/01/01 11:18:15;;;;;;;2.00;1.83;;;22.60;51.90;;;;;;4930249;29;20490;-80
2024/01/01 11:20:54;;;;;;;2.20;2.00;;;22.70;52.00;;;;;;4935281;29;21015;-80
2024/01/01 11:23:41;;;;;;;1.97;1.80;;;22.70;52.10;;;;;;4929955;29;20456;-80
2024/01/01 11:26:27;;;;;;;2.40;2.00;;;22.70;52.20;;;;;;4931804;29;20467;-79
2024/01/01 11:28:57;;;;;;;1.73;1.63;;;22.70;52.30;;;;;;4915423;29;20467;-82
2024/01/01 11:31:26;;;;;;;2.20;2.00;;;22.60;52.30;;;;;;4937237;29;20464;-80
2024/01/01 11:34:08;;;;;;;1.70;1.60;;;22.60;52.50;;;;;;4937424;29;20855;-80
2024/01/01 11:36:53;;;;;;;2.37;2.17;;;22.50;52.60;;;;;;4926796;29;20475;-80
2024/01/01 11:39:24;;;;;;;1.67;1.57;;;22.50;52.80;;;;;;4938112;29;20566;-79
2024/01/01 11:41:56;;;;;;;1.97;1.87;;;22.50;52.80;;;;;;4931585;29;20548;-79
2024/01/01 11:44:25;;;;;;;3.10;2.00;;;22.50;52.60;;;;;;4925549;29;20455;-79
2024/01/01 11:46:56;;;;;;;1.67;1.57;;;22.50;52.70;;;;;;4921879;29;20540;-79
2024/01/01 11:49:24;;;;;;;7.10;2.93;;;22.50;52.50;;;;;;4933296;29;20507;-83
2024/01/01 11:51:55;;;;;;;1.90;1.70;;;22.50;52.80;;;;;;4932748;29;20554;-81
2024/01/01 11:54:26;;;;;;;2.33;1.90;;;22.50;52.60;;;;;;4928265;29;20461;-79
2024/01/01 11:56:56;;;;;;;1.83;1.67;;;22.50;52.60;;;;;;4929832;29;20541;-80
2024/01/01 11:59:26;;;;;;;1.53;1.43;;;22.50;52.60;;;;;;4937198;29;20518;-82
2024/01/01 12:01:55;;;;;;;3.47;1.30;;;22.60;52.50;;;;;;4941344;29;20550;-80
2024/01/01 12:04:23;;;;;;;2.50;1.40;;;22.60;52.50;;;;;;4937617;29;20455;-79
2024/01/01 12:06:52;;;;;;;1.80;1.30;;;22.60;52.30;;;;;;4950305;29;20483;-84
2024/01/01 12:09:21;;;;;;;1.33;1.20;;;22.70;52.40;;;;;;4932896;29;20487;-81
2024/01/01 12:11:51;;;;;;;1.87;1.77;;;22.70;52.30;;;;;;4923812;29;20455;-80
2024/01/01 12:14:25;;;;;;;1.43;1.10;;;22.70;52.20;;;;;;4940032;29;20468;-82
2024/01/01 12:16:54;;;;;;;1.60;1.50;;;22.70;52.20;;;;;;4943654;29;20465;-84
2024/01/01 12:19:23;;;;;;;2.83;1.70;;;22.70;52.30;;;;;;4932866;29;20488;-84
2024/01/01 12:21:53;;;;;;;1.20;1.10;;;22.70;52.30;;;;;;4934878;29;20475;-85
2024/01/01 12:24:21;;;;;;;4.73;1.60;;;22.60;52.20;;;;;;4935355;29;20488;-83
2024/01/01 12:27:01;;;;;;;1.43;1.20;;;22.60;52.20;;;;;;4927767;29;20461;-82
2024/01/01 12:29:30;;;;;;;3.43;1.43;;;22.50;52.50;;;;;;4934851;29;20453;-83
2024/01/01 12:31:58;;;;;;;2.83;1.70;;;22.50;52.40;;;;;;4935985;29;20463;-83
2024/01/01 12:34:26;;;;;;;1.60;1.33;;;22.50;52.40;;;;;;4921290;29;20464;-85
2024/01/01 12:36:56;;;;;;;0.80;0.80;;;22.50;52.60;;;;;;4921639;29;20556;-83
2024/01/01 12:39:25;;;;;;;1.63;1.40;;;22.40;52.70;;;;;;4942786;29;20479;-83
2024/01/01 12:41:55;;;;;;;2.13;1.93;;;22.40;52.50;;;;;;4933616;29;20456;-88
2024/01/01 12:44:23;;;;;;;2.67;2.20;;;22.40;52.60;;;;;;4931533;29;20945;-83
2024/01/01 12:46:52;;;;;;;2.50;2.30;;;22.40;52.90;;;;;;4933133;29;20456;-83
2024/01/01 12:49:20;;;;;;;2.97;2.73;;;22.40;52.80;;;;;;4924657;29;20530;-87
2024/01/01 12:51:48;;;;;;;4.27;3.70;;;22.30;52.80;;;;;;4920072;29;20491;-83
2024/01/01 12:54:17;;;;;;;5.17;4.60;;;22.30;52.90;;;;;;4927766;29;20459;-85